Latest Coastal Weather Observations for King Island Airport

IDT60701

Issued at 6:02 pm EDT Sunday 1 March 2015 (issued every 10 minutes, with the page automatically refreshed every 10 minutes)

About coastal observations | Map of coastal stations | Coastal observations for TAS | Marine services | Other Formats
Station Details ID: 098017 Name: KING ISLAND AIRPORT Lat: -39.88 Lon: 143.88 Height: 37.0 m
Data from the previous 72 hours. | See also: Recent months at King Island Airport
Date/Time
EDT
Temp

°C
Wind Pressure Rain
since 9am
mm
Weather Cloud Vis
km
Sea
Height
m
Swell
Dir
 
Speed
knots
Gust
knots
hPa Trend Height
m
Period
s
Dir
01/06:00pm 16.4 SSW 14 19 1017.1 - 0.0 - Mostly clear 10 - - - -
01/05:30pm 16.7 SSW 14 20 1016.7 - 0.0 - Partly cloudy 10 - - - -
01/05:00pm 17.3 SSW 17 21 1016.8 - 0.0 - Partly cloudy 10 - - - -
01/04:30pm 16.9 SW 16 22 1016.6 - 0.0 - Partly cloudy 10 - - - -
01/04:00pm 16.6 SW 16 22 1016.4 - 0.0 - Partly cloudy 10 - - - -
01/03:30pm 16.8 SW 17 22 1016.5 - 0.0 - Partly cloudy 10 - - - -
01/03:00pm 16.7 SW 19 24 1016.2 - 0.0 - Cloudy 10 - - - -
01/02:30pm 16.8 SW 20 27 1015.9 - 0.0 - Partly cloudy 10 - - - -
01/02:00pm 16.8 SW 20 27 1015.5 - 0.0 - Partly cloudy 10 - - - -
01/01:30pm 17.3 SW 20 28 1015.3 - 0.0 - Partly cloudy 10 - - - -
01/01:00pm 17.4 SSW 20 26 1015.0 - 0.0 - Partly cloudy 10 - - - -
01/12:30pm 17.3 SW 18 24 1014.8 - 0.0 - Partly cloudy 10 - - - -
01/12:00pm 15.1 SW 18 27 1014.6 - 0.0 Rain Cloudy 10 - - - -
01/11:55am 16.7 SW 17 27 1014.5 - 0.0 - Partly cloudy 10 - - - -
01/11:30am 16.3 SSW 20 27 1014.1 - 0.0 - Partly cloudy 10 - - - -
01/11:00am 17.5 SW 18 24 1013.6 - 0.0 - Partly cloudy 10 - - - -
01/10:30am 17.4 SSW 17 22 1013.1 - 0.0 - Partly cloudy 10 - - - -
01/10:00am 16.6 SW 17 22 1012.6 - 0.0 - Partly cloudy 10 - - - -
01/09:30am 16.4 SW 17 22 1012.1 - 0.0 - Partly cloudy 10 - - - -
01/09:00am 14.8 SW 13 18 1011.5 - 1.0 Showers Cloudy 10 - - - -
01/08:30am 16.1 SW 14 20 1010.8 - 0.8 - Partly cloudy 10 - - - -
01/08:00am 15.4 SW 13 18 1010.4 - 0.8 - Partly cloudy 10 - - - -
01/07:30am 15.1 SW 12 16 1009.9 - 0.8 - Partly cloudy 10 - - - -
01/07:00am 14.7 SW 13 19 1009.3 - 0.8 - Partly cloudy 10 - - - -
01/06:30am 14.6 SSW 10 15 1008.7 - 0.8 - Partly cloudy 10 - - - -
01/06:00am 14.8 SW 13 18 1008.1 - 0.8 - Mostly clear 10 - - - -
01/05:30am 14.7 SW 14 17 1007.7 - 0.8 - Partly cloudy 10 - - - -
01/05:00am 14.8 SW 13 18 1007.4 - 0.8 - Partly cloudy 10 - - - -
01/04:30am 14.9 SW 16 20 1007.1 - 0.8 - Partly cloudy 10 - - - -
01/04:00am 15.1 SW 15 20 1007.0 - 0.8 - Partly cloudy 10 - - - -
01/03:30am 15.0 SW 13 18 1006.7 - 0.8 - - 10 - - - -
01/03:00am 15.0 SW 13 19 1006.7 - 0.8 - Partly cloudy 10 - - - -
01/02:30am 15.1 SW 14 18 1006.7 - 0.8 - Partly cloudy 10 - - - -
01/02:00am 15.5 SW 15 20 1006.6 - 0.8 - Partly cloudy 10 - - - -
01/01:30am 15.6 SW 14 18 1006.4 - 0.8 - Partly cloudy 10 - - - -
01/01:00am 15.6 SW 15 21 1006.3 - 0.8 - Cloudy 10 - - - -
01/12:30am 15.6 SW 15 22 1006.1 - 0.8 - Cloudy 10 - - - -
01/12:00am 15.5 SW 15 20 1005.8 - 0.8 - Partly cloudy 10 - - - -
 
Date/Time
EDT
Temp

°C
Wind Pressure Rain
since 9am
mm
Weather Cloud Vis
km
Sea
Height
m
Swell
Dir
 
Speed
knots
Gust
knots
hPa Trend Height
m
Period
s
Dir
28/11:30pm 15.3 SW 14 20 1005.8 - 0.8 - Partly cloudy 10 - - - -
28/11:00pm 15.8 SW 13 18 1006.0 - 0.8 - Partly cloudy 10 - - - -
28/10:30pm 15.6 SW 11 14 1005.7 - 0.8 - Partly cloudy 10 - - - -
28/10:00pm 15.6 SW 12 17 1005.4 - 0.8 - Partly cloudy 10 - - - -
28/09:38pm 15.6 SW 14 19 1004.9 - 0.8 - Partly cloudy 10 - - - -
28/09:30pm 15.6 SW 15 22 1004.7 - 0.8 - Partly cloudy 10 - - - -
28/09:00pm 16.1 WSW 11 22 1004.3 - 0.8 Drizzle Cloudy 10 - - - -
28/08:39pm 16.4 SW 13 17 1004.4 - 0.8 - Partly cloudy 7 - - - -
28/08:34pm 16.4 SW 13 17 1004.2 - 0.8 - Partly cloudy 8 - - - -
28/08:30pm 16.5 WSW 12 17 1004.3 - 0.8 - Partly cloudy 6 - - - -
28/08:23pm 17.0 WSW 9 14 1004.1 - 0.6 - Partly cloudy 5 - - - -
28/08:00pm 17.5 WSW 9 14 1003.7 - 0.2 - Partly cloudy 10 - - - -
28/07:30pm 17.8 SW 11 15 1002.2 - 0.0 - Partly cloudy 10 - - - -
28/07:00pm 18.4 WSW 8 10 1001.6 - 0.0 - Partly cloudy 10 - - - -
28/06:30pm 18.7 W 11 14 1001.7 - 0.0 - Cloudy 10 - - - -
28/06:01pm 19.3 W 8 10 1001.4 - 0.0 - Partly cloudy 10 - - - -
28/06:00pm 19.3 W 8 13 1001.5 - 0.0 Showers Cloudy 10 - - - -
28/05:30pm 20.0 WNW 10 14 1001.7 - 0.0 - Partly cloudy 10 - - - -
28/05:00pm 20.9 WNW 13 17 1001.8 - 0.0 - Partly cloudy 10 - - - -
28/04:30pm 20.7 NW 12 15 1002.1 - 0.0 - Cloudy 10 - - - -
28/04:00pm 21.3 NW 16 20 1002.4 - 0.0 - Cloudy 10 - - - -
28/03:30pm 22.1 WNW 16 21 1002.5 - 0.0 - Cloudy 10 - - - -
28/03:00pm 22.1 WNW 16 20 1002.6 - 0.0 - Cloudy 10 - - - -
28/02:30pm 22.6 NW 12 16 1002.7 - 0.0 - Cloudy 10 - - - -
28/02:00pm 21.7 NW 14 19 1002.8 - 0.0 - Partly cloudy 10 - - - -
28/01:30pm 22.3 NNW 17 19 1002.8 - 0.0 - Partly cloudy 10 - - - -
28/01:00pm 22.4 NNW 17 22 1002.7 - 0.0 - Partly cloudy 10 - - - -
28/12:30pm 21.1 NNW 16 21 1003.0 - 0.0 - Cloudy 10 - - - -
28/12:00pm 20.4 NNW 16 19 1003.3 - 0.0 Rain Mostly cloudy 10 - - - -
28/11:30am 20.4 N 16 19 1003.9 - 0.0 - Partly cloudy 10 - - - -
28/11:00am 19.8 N 14 20 1003.7 - 0.0 - Partly cloudy 10 - - - -
28/10:30am 19.8 NNE 12 17 1004.2 - 0.0 - Cloudy 10 - - - -
28/10:00am 19.0 NE 12 17 1003.9 - 0.0 - Cloudy 10 - - - -
28/09:30am 18.4 NE 14 17 1004.1 - 0.0 - Cloudy 10 - - - -
28/09:00am 18.0 NE 14 19 1004.2 - 0.0 - Mostly cloudy 10 - - - -
28/08:30am 17.3 NNE 11 15 1004.8 - 0.0 - Partly cloudy 10 - - - -
28/08:00am 16.4 NE 9 13 1004.6 - 0.0 - Partly cloudy 10 - - - -
28/07:30am 15.8 NE 11 15 1004.6 - 0.0 - Partly cloudy 10 - - - -
28/07:00am 15.5 NE 10 15 1004.5 - 0.0 - Partly cloudy 10 - - - -
28/06:30am 15.2 NE 10 14 1004.8 - 0.0 - - 10 - - - -
28/06:00am 14.6 ENE 9 13 1004.7 - 0.0 - Cloudy 10 - - - -
28/05:30am 14.3 ENE 8 12 1005.4 - 0.0 - - 10 - - - -
28/05:00am 14.3 ENE 8 10 1005.7 - 0.0 - - 10 - - - -
28/04:30am 14.3 ENE 8 10 1006.3 - 0.0 - Partly cloudy 10 - - - -
28/04:00am 14.3 ENE 8 10 1006.8 - 0.0 - Cloudy 10 - - - -
28/03:30am 13.8 ENE 7 8 1007.5 - 0.0 - Cloudy 10 - - - -
28/03:00am 12.9 E 6 7 1007.9 - 0.0 - Cloudy 10 - - - -
28/02:30am 12.3 ESE 5 6 1008.5 - 0.0 - Cloudy 10 - - - -
28/02:00am 11.7 ESE 5 5 1008.8 - 0.0 - Partly cloudy 10 - - - -
28/01:30am 11.6 ESE 4 5 1009.4 - 0.0 - - 10 - - - -
28/01:00am 11.3 ESE 4 5 1009.7 - 0.0 - - 10 - - - -
28/12:30am 11.1 ENE 4 5 1010.0 - 0.0 - Partly cloudy 10 - - - -
28/12:00am 11.9 CALM 0 0 1010.8 - 0.0 - Partly cloudy 10 - - - -
 
Date/Time
EDT
Temp

°C
Wind Pressure Rain
since 9am
mm
Weather Cloud Vis
km
Sea
Height
m
Swell
Dir
 
Speed
knots
Gust
knots
hPa Trend Height
m
Period
s
Dir
27/11:30pm 12.7 ESE 3 4 1010.6 - 0.0 - - 10 - - - -
27/11:00pm 13.4 SSE 4 6 1011.1 - 0.0 - Partly cloudy 10 - - - -
27/10:30pm 13.3 ESE 4 5 1011.4 - 0.0 - - 10 - - - -
27/10:00pm 13.6 SE 4 5 1011.6 - 0.0 - - 10 - - - -
27/09:30pm 13.6 SSE 4 5 1011.8 - 0.0 - - 10 - - - -
27/09:00pm 13.8 SSE 4 6 1011.4 - 0.0 - Cloudy 10 - - - -
27/08:30pm 14.4 S 3 5 1011.4 - 0.0 - - 10 - - - -
27/08:00pm 14.8 S 4 5 1011.3 - 0.0 - - 10 - - - -
27/07:30pm 15.2 SSW 7 9 1011.0 - 0.0 - - 10 - - - -
27/07:00pm 15.9 SSW 8 10 1011.1 - 0.0 - - 10 - - - -
27/06:30pm 16.3 SW 9 12 1011.2 - 0.0 - - 10 - - - -
27/06:00pm 17.4 SSW 7 12 1010.9 - 0.0 - Mostly clear 10 - - - -
27/05:30pm 17.1 SSW 6 9 1010.7 - 0.0 - - 10 - - - -
27/05:00pm 17.1 WSW 2 7 1010.2 - 0.0 - Partly cloudy 10 - - - -
27/04:30pm 16.3 E 3 6 1010.1 - 0.0 - Partly cloudy 10 - - - -
27/04:00pm 15.4 SSE 2 5 1010.6 - 0.0 - Partly cloudy 10 - - - -
27/03:30pm 15.4 S 5 7 1011.2 - 0.0 - Partly cloudy 10 - - - -
27/03:00pm 15.6 SSW 7 10 1011.7 - 0.0 Showers Cloudy 10 - - - -
27/02:30pm 15.9 SW 7 12 1012.1 - 0.0 - Partly cloudy 10 - - - -
27/02:00pm 16.7 SW 7 10 1012.1 - 0.0 - - 10 - - - -
27/01:30pm 15.9 SSW 7 11 1011.8 - 0.0 - - 10 - - - -
27/01:00pm 16.7 SSW 7 11 1011.9 - 0.0 - - 10 - - - -
27/12:30pm 17.7 WSW 9 15 1012.4 - 0.0 - - 10 - - - -
27/12:00pm 17.7 W 5 9 1012.3 - 0.0 - - 10 - - - -
27/11:30am 17.6 SW 8 13 1012.3 - 0.0 - Partly cloudy 10 - - - -
27/11:00am 17.3 SSW 7 12 1011.9 - 0.0 - - 10 - - - -
27/10:30am 17.0 SSW 8 12 1012.1 - 0.0 - - 10 - - - -
27/10:00am 16.4 S 7 10 1012.0 - 0.0 - Partly cloudy 10 - - - -
27/09:30am 15.9 SSE 6 9 1012.1 - 0.0 - Cloudy 10 - - - -
27/09:00am 15.1 SSE 7 9 1012.1 - 0.0 - Cloudy 10 - - - -
27/08:30am 14.2 SSE 5 7 1011.7 - 0.0 - Cloudy 10 - - - -
27/08:00am 11.4 SE 5 5 1011.6 - 0.0 - Cloudy 10 - - - -
27/07:30am 9.9 CALM 0 0 1011.6 - 0.0 - Cloudy 10 - - - -
27/07:00am 9.4 CALM 0 0 1011.1 - 0.0 - Cloudy 10 - - - -
27/06:30am 9.2 ESE 5 5 1010.6 - 0.0 - - 10 - - - -
27/06:00am 9.7 E 5 6 1010.5 - 0.0 - - 10 - - - -
27/05:30am 11.6 SSE 5 8 1010.5 - 0.0 - - 10 - - - -
27/05:00am 12.1 S 6 7 1010.7 - 0.0 - Cloudy 10 - - - -
27/04:30am 11.9 SSE 5 6 1010.9 - 0.0 - Cloudy 10 - - - -
27/04:00am 11.1 SSE 6 7 1010.8 - 0.0 - Partly cloudy 10 - - - -
27/03:30am 11.8 S 6 8 1010.8 - 0.0 - Partly cloudy 10 - - - -
27/03:00am 12.6 S 6 8 1011.0 - 0.0 - Mostly clear 10 - - - -
27/02:30am 12.6 SSE 6 7 1010.9 - 0.0 - Partly cloudy 10 - - - -
27/02:00am 13.7 S 6 7 1011.4 - 0.0 - Partly cloudy 10 - - - -
27/01:30am 14.3 SSW 5 6 1011.6 - 0.0 - Partly cloudy 10 - - - -
27/01:00am 14.6 SE 4 5 1011.7 - 0.0 - Partly cloudy 10 - - - -
27/12:30am 14.5 S 4 5 1011.7 - 0.0 - Partly cloudy 10 - - - -
27/12:00am 14.4 S 5 6 1011.6 - 0.0 - Partly cloudy 10 - - - -
 
Date/Time
EDT
Temp

°C
Wind Pressure Rain
since 9am
mm
Weather Cloud Vis
km
Sea
Height
m
Swell
Dir
 
Speed
knots
Gust
knots
hPa Trend Height
m
Period
s
Dir
26/11:30pm 14.7 SSE 5 9 1011.6 - 0.0 - Cloudy 10 - - - -
26/11:00pm 15.0 SSE 5 6 1011.7 - 0.0 - Cloudy 10 - - - -
26/10:30pm 15.3 SSE 6 8 1011.9 - 0.0 - Cloudy 10 - - - -
26/10:00pm 15.6 S 6 8 1011.9 - 0.0 - Partly cloudy 10 - - - -
26/09:46pm 15.7 SSE 6 8 1011.8 - 0.0 - Partly cloudy 10 - - - -
26/09:30pm 15.9 S 7 9 1011.6 - 0.0 - Partly cloudy 6 - - - -
26/09:25pm 16.1 SSE 7 9 1011.6 - 0.0 - Partly cloudy 7 - - - -
26/09:00pm 16.3 S 6 8 1011.3 - 0.0 - Cloudy 10 - - - -
26/08:30pm 16.4 S 6 7 1010.9 - 0.0 - Partly cloudy 10 - - - -
26/08:00pm 16.8 SSE 8 10 1010.3 - 0.0 - Partly cloudy 10 - - - -
26/07:30pm 17.6 SSW 9 13 1010.0 - 0.0 - Partly cloudy 10 - - - -
26/07:00pm 17.5 S 7 10 1009.8 - 0.0 - Partly cloudy 10 - - - -
26/06:59pm 17.4 S 7 11 1009.8 - 0.0 - Partly cloudy 10 - - - -
26/06:30pm 17.7 SW 10 14 1009.9 - 0.0 - Partly cloudy 10 - - - -
26/06:28pm 17.6 SW 10 14 1009.9 - 0.0 - Partly cloudy 10 - - - -
26/06:07pm 18.3 W 10 14 1009.7 - 0.0 - Partly cloudy 10 - - - -

Other Formats:

Comma delimited format used in spreadsheet applications
http://www.bom.gov.au/fwo/IDT60701/IDT60701.94850.axf

JavaScript Object Notation format (JSON) in row-major order
http://www.bom.gov.au/fwo/IDT60701/IDT60701.94850.json